createdAt,value
2018-01-01T00:01:35.561Z,83.50
2018-01-01T00:04:09.153Z,83.50
2018-01-01T00:06:42.997Z,79.60
2018-01-01T00:09:16.818Z,78.70
2018-01-01T00:11:51.370Z,78.70
2018-01-01T00:14:25.230Z,78.90
2018-01-01T00:17:00.741Z,77.10
2018-01-01T00:19:34.606Z,78.30
2018-01-01T00:22:08.970Z,75.30
2018-01-01T00:24:45.832Z,75.20
2018-01-01T00:27:21.908Z,75.30
2018-01-01T00:29:57.755Z,75.20
2018-01-01T00:32:32.651Z,76.10
2018-01-01T00:35:09.591Z,76.10
2018-01-01T00:37:47.476Z,76.10
2018-01-01T00:40:24.905Z,76.10
2018-01-01T00:43:01.499Z,76.60
2018-01-01T00:45:35.971Z,79.30
2018-01-01T00:48:10.990Z,79.30
2018-01-01T00:50:44.846Z,80.60
2018-01-01T00:53:20.103Z,79.20
2018-01-01T00:55:53.858Z,80.00
2018-01-01T00:58:28.513Z,80.60
2018-01-01T01:01:02.221Z,80.80
2018-01-01T01:03:39.846Z,80.30
2018-01-01T01:06:16.007Z,81.80
2018-01-01T01:08:49.797Z,81.40
2018-01-01T01:11:25.195Z,81.00
2018-01-01T01:13:58.887Z,80.40
2018-01-01T01:16:32.764Z,80.60
2018-01-01T01:19:07.455Z,80.40
2018-01-01T01:21:43.457Z,78.50
2018-01-01T01:24:21.223Z,78.40
2018-01-01T01:26:56.480Z,75.70
2018-01-01T01:29:33.507Z,76.20
2018-01-01T01:32:09.881Z,75.50
2018-01-01T01:34:47.223Z,74.80
2018-01-01T01:37:28.344Z,74.70
2018-01-01T01:40:04.155Z,73.50
2018-01-01T01:42:39.437Z,73.40
2018-01-01T01:45:16.066Z,72.00
2018-01-01T01:47:49.734Z,71.60
2018-01-01T01:50:30.224Z,69.70
2018-01-01T01:53:04.701Z,69.40
2018-01-01T01:55:39.570Z,70.10
2018-01-01T01:58:13.667Z,68.00
2018-01-01T02:00:47.400Z,68.30
2018-01-01T02:03:21.972Z,68.50
2018-01-01T02:05:56.343Z,68.00
2018-01-01T02:08:30.147Z,65.10
2018-01-01T02:11:04.637Z,65.70
2018-01-01T02:13:38.470Z,64.10
2018-01-01T02:16:12.237Z,63.60
2018-01-01T02:18:46.124Z,64.70
2018-01-01T02:24:00.977Z,62.80
2018-01-01T02:26:34.892Z,62.80
2018-01-01T02:29:10.022Z,61.90
2018-01-01T02:31:44.797Z,62.30
2018-01-01T02:34:19.102Z,60.80
2018-01-01T02:36:53.789Z,60.60
2018-01-01T02:39:28.432Z,60.30
2018-01-01T02:42:02.350Z,61.30
2018-01-01T02:44:35.997Z,60.70
2018-01-01T02:47:09.729Z,60.80
2018-01-01T02:49:44.325Z,61.80
2018-01-01T02:52:18.737Z,62.60
2018-01-01T02:54:52.489Z,62.70
2018-01-01T02:57:26.341Z,62.40
2018-01-01T03:00:00.893Z,62.80
2018-01-01T03:02:34.520Z,62.70
2018-01-01T03:05:08.372Z,61.80
2018-01-01T03:07:43.225Z,61.20
2018-01-01T03:10:17.306Z,61.00
2018-01-01T03:12:52.420Z,60.80
2018-01-01T03:15:29.864Z,60.80
2018-01-01T03:18:03.755Z,60.80
2018-01-01T03:20:37.790Z,60.70
2018-01-01T03:23:12.248Z,60.70
2018-01-01T03:25:46.080Z,60.60
2018-01-01T03:28:20.189Z,59.10
2018-01-01T03:30:53.946Z,59.80
2018-01-01T03:33:27.961Z,60.00
2018-01-01T03:36:01.732Z,59.70
2018-01-01T03:38:35.472Z,60.90
2018-01-01T03:41:09.218Z,61.00
2018-01-01T03:43:43.024Z,60.10
2018-01-01T03:46:16.741Z,60.50
2018-01-01T03:48:50.521Z,58.20
2018-01-01T03:51:24.502Z,58.70
2018-01-01T03:53:59.114Z,57.30
2018-01-01T03:56:33.945Z,56.20
2018-01-01T03:59:07.752Z,56.60
2018-01-01T04:01:43.349Z,56.30
2018-01-01T04:04:19.224Z,55.10
2018-01-01T04:06:53.717Z,55.10
2018-01-01T04:09:27.547Z,54.70
2018-01-01T04:12:04.232Z,55.30
2018-01-01T04:14:38.003Z,54.50
2018-01-01T04:17:11.724Z,55.70
2018-01-01T04:19:46.513Z,55.20
2018-01-01T04:22:20.176Z,55.40
2018-01-01T04:24:54.660Z,54.80
2018-01-01T04:27:28.363Z,55.10
2018-01-01T04:30:03.069Z,55.10
2018-01-01T04:32:36.772Z,54.70
2018-01-01T04:35:10.424Z,54.10
2018-01-01T04:37:44.250Z,54.00
2018-01-01T04:40:17.941Z,54.10
2018-01-01T04:42:52.815Z,53.60
2018-01-01T04:45:27.246Z,53.20
2018-01-01T04:48:00.908Z,52.80
2018-01-01T04:50:34.635Z,53.20
2018-01-01T04:53:08.233Z,54.00
2018-01-01T04:55:42.060Z,54.20
2018-01-01T04:58:15.762Z,55.30
2018-01-01T05:00:51.685Z,55.50
2018-01-01T05:03:25.482Z,54.60
2018-01-01T05:05:59.338Z,54.80
2018-01-01T05:08:32.930Z,54.40
2018-01-01T05:11:06.660Z,53.90
2018-01-01T05:13:40.221Z,53.90
2018-01-01T05:16:14.764Z,53.50
2018-01-01T05:18:49.832Z,54.00
2018-01-01T05:21:23.429Z,53.00
2018-01-01T05:23:56.985Z,53.80
2018-01-01T05:26:30.784Z,55.50
2018-01-01T05:29:04.919Z,57.40
2018-01-01T05:31:38.664Z,56.90
2018-01-01T05:34:13.695Z,57.20
2018-01-01T05:36:47.376Z,55.90
2018-01-01T05:39:21.152Z,55.90
2018-01-01T05:41:55.839Z,55.10
2018-01-01T05:44:29.538Z,55.10
2018-01-01T05:47:03.345Z,54.70
2018-01-01T05:49:37.260Z,55.10
2018-01-01T05:52:11.151Z,54.70
2018-01-01T05:54:45.013Z,55.30
2018-01-01T05:57:19.635Z,55.60
2018-01-01T05:59:54.450Z,56.60
2018-01-01T06:02:29.202Z,55.70
2018-01-01T06:05:03.749Z,55.40
2018-01-01T06:07:37.484Z,55.80
2018-01-01T06:10:13.695Z,55.40
2018-01-01T06:12:47.540Z,54.90
2018-01-01T06:15:21.382Z,54.20
2018-01-01T06:17:55.177Z,53.30
2018-01-01T06:20:28.827Z,53.90
2018-01-01T06:23:02.575Z,51.90
2018-01-01T06:25:36.365Z,50.90
2018-01-01T06:28:10.506Z,50.80
2018-01-01T06:30:44.955Z,51.00
2018-01-01T06:33:18.585Z,50.90
2018-01-01T06:35:53.998Z,50.80
2018-01-01T06:38:29.439Z,49.80
2018-01-01T06:41:22.699Z,49.70
2018-01-01T06:43:59.432Z,50.70
2018-01-01T06:46:35.502Z,51.30
2018-01-01T06:49:10.374Z,52.20
2018-01-01T06:51:45.696Z,54.70
2018-01-01T06:54:19.341Z,56.10
2018-01-01T06:56:53.104Z,56.00
2018-01-01T06:59:27.279Z,56.40
2018-01-01T07:02:03.034Z,57.80
2018-01-01T07:04:36.841Z,61.60
2018-01-01T07:07:10.582Z,64.50
2018-01-01T07:09:44.336Z,65.90
2018-01-01T07:12:19.141Z,67.30
2018-01-01T07:14:53.078Z,67.50
2018-01-01T07:17:27.532Z,67.30
2018-01-01T07:20:02.427Z,65.80
2018-01-01T07:22:36.269Z,63.60
2018-01-01T07:25:11.316Z,63.10
2018-01-01T07:27:45.486Z,63.10
2018-01-01T07:30:19.326Z,62.20
2018-01-01T07:32:53.012Z,61.40
2018-01-01T07:35:26.745Z,61.40
2018-01-01T07:38:01.331Z,61.40
2018-01-01T07:40:35.751Z,62.00
2018-01-01T07:43:09.443Z,61.90
2018-01-01T07:45:43.160Z,62.20
2018-01-01T07:48:16.992Z,62.40
2018-01-01T07:50:50.714Z,62.50
2018-01-01T07:53:24.625Z,62.90
2018-01-01T07:55:58.384Z,63.30
2018-01-01T07:58:32.101Z,63.30
2018-01-01T08:01:06.082Z,63.50
2018-01-01T08:03:40.374Z,63.80
2018-01-01T08:06:14.373Z,64.10
2018-01-01T08:08:48.413Z,64.30
2018-01-01T08:11:22.352Z,65.50
2018-01-01T08:13:56.213Z,65.70
2018-01-01T08:16:30.326Z,66.50
2018-01-01T08:19:05.054Z,67.70
2018-01-01T08:21:41.202Z,67.60
2018-01-01T08:24:16.926Z,67.40
2018-01-01T08:26:50.764Z,67.30
2018-01-01T08:29:24.914Z,67.20
2018-01-01T08:31:58.780Z,67.30
2018-01-01T08:34:32.760Z,66.60
2018-01-01T08:37:06.497Z,67.10
2018-01-01T08:39:40.216Z,68.40
2018-01-01T08:42:14.068Z,71.80
2018-01-01T08:44:47.872Z,76.90
2018-01-01T08:47:21.715Z,79.80
2018-01-01T08:49:56.287Z,91.70
2018-01-01T08:52:30.928Z,91.80
2018-01-01T08:55:05.392Z,89.70
2018-01-01T08:57:40.118Z,89.80
2018-01-01T09:00:13.886Z,91.10
2018-01-01T09:02:47.630Z,90.00
2018-01-01T09:05:23.559Z,89.70
2018-01-01T09:07:58.624Z,91.00
2018-01-01T09:10:32.939Z,91.00
2018-01-01T09:13:06.716Z,90.60
2018-01-01T09:15:40.465Z,91.00
2018-01-01T09:20:57.513Z,90.70
2018-01-01T09:23:32.102Z,91.10
2018-01-01T09:26:05.817Z,90.60
2018-01-01T09:28:40.280Z,89.60
2018-01-01T09:31:17.574Z,89.60
2018-01-01T09:33:51.339Z,90.00
2018-01-01T09:36:25.193Z,90.00
2018-01-01T09:38:58.890Z,87.80
2018-01-01T09:41:32.709Z,85.70
2018-01-01T09:44:13.478Z,84.80
2018-01-01T09:46:47.801Z,85.00
2018-01-01T09:49:24.222Z,85.80
2018-01-01T09:52:00.383Z,82.70
2018-01-01T09:54:36.073Z,85.00
2018-01-01T09:57:10.817Z,84.60
2018-01-01T09:59:44.622Z,85.90
2018-01-01T10:02:24.782Z,83.00
2018-01-01T10:04:59.010Z,82.90
2018-01-01T10:07:32.628Z,84.20
2018-01-01T10:10:07.409Z,84.30
2018-01-01T10:12:43.056Z,85.30
2018-01-01T10:15:18.061Z,84.20
2018-01-01T10:17:52.585Z,82.70
2018-01-01T10:20:28.136Z,79.70
2018-01-01T10:23:01.850Z,80.80
2018-01-01T10:25:37.954Z,80.60
2018-01-01T10:28:12.972Z,78.30
2018-01-01T10:30:46.808Z,78.30
2018-01-01T10:33:22.632Z,75.90
2018-01-01T10:35:58.823Z,73.90
2018-01-01T10:38:40.845Z,73.90
2018-01-01T10:41:18.459Z,72.70
2018-01-01T10:43:52.000Z,70.70
2018-01-01T10:46:25.830Z,69.10
2018-01-01T10:48:59.941Z,67.50
2018-01-01T10:51:33.974Z,68.40
2018-01-01T10:54:12.197Z,68.40
2018-01-01T10:56:48.728Z,68.20
2018-01-01T11:20:11.572Z,60.80
2018-01-01T11:22:45.408Z,59.40
2018-01-01T11:25:21.715Z,61.40
2018-01-01T11:27:55.520Z,60.20
2018-01-01T11:30:31.251Z,60.60
2018-01-01T11:33:07.595Z,59.20
2018-01-01T11:35:41.653Z,59.50
2018-01-01T11:38:18.002Z,59.70
2018-01-01T11:41:01.909Z,58.90
2018-01-01T11:43:35.788Z,58.80
2018-01-01T11:46:09.720Z,58.30
2018-01-01T11:49:00.210Z,55.70
2018-01-01T11:51:38.863Z,57.30
2018-01-01T11:57:17.779Z,55.20
2018-01-01T11:59:53.131Z,57.30
2018-01-01T12:02:29.197Z,56.80
2018-01-01T12:05:10.155Z,54.00
2018-01-01T12:07:46.556Z,52.50
2018-01-01T12:10:22.016Z,54.00
2018-01-01T12:15:39.048Z,50.70
2018-01-01T12:18:21.757Z,51.80
2018-01-01T12:20:57.216Z,49.50
2018-01-01T12:26:11.704Z,47.40
2018-01-01T12:31:38.518Z,49.50
2018-01-01T12:34:13.780Z,49.70
2018-01-01T12:36:48.460Z,48.60
2018-01-01T12:39:23.398Z,49.60
2018-01-01T12:47:45.930Z,48.80
2018-01-01T12:50:21.835Z,48.70
2018-01-01T12:55:48.190Z,49.50
2018-01-01T12:58:27.321Z,51.00
2018-01-01T13:12:57.573Z,52.70
2018-01-01T13:15:31.936Z,51.00
2018-01-01T13:18:08.456Z,53.60
2018-01-01T13:20:43.144Z,52.50
2018-01-01T13:23:17.406Z,53.10
2018-01-01T13:25:52.123Z,53.30
2018-01-01T13:28:26.978Z,55.60
2018-01-01T13:31:01.805Z,55.20
2018-01-01T13:33:37.496Z,53.90
2018-01-01T13:39:00.920Z,54.10
2018-01-01T13:41:34.821Z,53.70
2018-01-01T13:44:12.581Z,54.40
2018-01-01T13:46:49.097Z,54.40
2018-01-01T13:49:23.038Z,51.90
2018-01-01T13:51:59.657Z,52.00
2018-01-01T13:54:40.580Z,50.30
2018-01-01T13:57:24.703Z,49.90
2018-01-01T13:59:58.699Z,49.90
2018-01-01T14:05:33.385Z,51.00
2018-01-01T14:08:07.139Z,49.90
2018-01-01T14:10:41.659Z,52.20
2018-01-01T14:13:16.072Z,53.40
2018-01-01T14:15:49.772Z,53.40
2018-01-01T14:18:23.489Z,54.20
2018-01-01T14:20:57.420Z,54.20
2018-01-01T14:23:31.389Z,54.10
2018-01-01T14:26:05.261Z,55.00
2018-01-01T14:28:38.950Z,55.70
2018-01-01T14:31:12.904Z,54.80
2018-01-01T14:33:46.680Z,54.50
2018-01-01T14:36:20.315Z,54.70
2018-01-01T14:38:54.061Z,54.80
2018-01-01T14:41:27.805Z,55.20
2018-01-01T14:44:01.601Z,55.60
2018-01-01T14:46:35.317Z,55.40
2018-01-01T14:49:09.223Z,55.80
2018-01-01T14:51:42.964Z,55.80
2018-01-01T14:54:16.580Z,56.40
2018-01-01T14:56:51.008Z,56.50
2018-01-01T14:59:24.756Z,55.90
2018-01-01T15:01:58.768Z,56.90
2018-01-01T15:04:32.332Z,55.90
2018-01-01T15:07:06.172Z,55.90
2018-01-01T15:09:47.108Z,55.70
2018-01-01T15:12:23.178Z,55.40
2018-01-01T15:15:05.480Z,55.30
2018-01-01T15:17:42.368Z,55.00
2018-01-01T15:20:16.161Z,54.70
2018-01-01T15:22:49.761Z,54.70
2018-01-01T15:25:23.568Z,54.80
2018-01-01T15:27:57.186Z,54.60
2018-01-01T15:33:17.757Z,54.70
2018-01-01T15:39:00.045Z,54.20
2018-01-01T15:41:33.787Z,54.50
2018-01-01T15:44:09.087Z,55.30
2018-01-01T15:46:42.894Z,55.40
2018-01-01T15:49:16.616Z,56.30
2018-01-01T15:51:51.282Z,57.00
2018-01-01T15:54:25.803Z,57.80
2018-01-01T16:08:59.077Z,58.60
2018-01-01T16:11:33.264Z,58.30
2018-01-01T16:14:08.184Z,58.10
2018-01-01T16:16:42.859Z,58.00
2018-01-01T16:19:16.869Z,57.90
2018-01-01T16:21:52.964Z,58.00
2018-01-01T16:24:27.538Z,59.00
2018-01-01T16:27:03.330Z,58.90
2018-01-01T16:29:37.230Z,59.70
2018-01-01T16:32:13.015Z,60.50
2018-01-01T16:34:47.757Z,60.50
2018-01-01T16:37:21.718Z,60.70
2018-01-01T16:39:56.227Z,61.00
2018-01-01T16:42:30.492Z,61.20
2018-01-01T16:45:05.608Z,61.20
2018-01-01T16:47:39.390Z,61.40
2018-01-01T16:50:13.152Z,61.10
2018-01-01T16:52:47.774Z,61.70
2018-01-01T16:55:22.118Z,62.30
2018-01-01T16:57:57.421Z,62.10
2018-01-01T17:00:31.191Z,62.40
2018-01-01T17:03:05.858Z,63.50
2018-01-01T17:05:50.279Z,64.40
2018-01-01T17:08:24.908Z,66.10
2018-01-01T17:10:59.577Z,67.30
2018-01-01T17:13:34.144Z,67.30
2018-01-01T17:16:09.270Z,67.00
2018-01-01T17:18:43.668Z,66.90
2018-01-01T17:21:17.355Z,66.90
2018-01-01T17:23:51.897Z,67.60
2018-01-01T17:26:26.499Z,68.80
2018-01-01T17:29:02.666Z,68.80
2018-01-01T17:31:37.905Z,68.70
2018-01-01T17:34:11.648Z,69.00
2018-01-01T17:36:45.496Z,68.80
2018-01-01T17:39:19.874Z,68.20
2018-01-01T17:41:55.502Z,67.80
2018-01-01T17:44:30.590Z,67.80
2018-01-01T17:47:04.896Z,67.40
2018-01-01T17:55:03.563Z,67.60
2018-01-01T17:57:41.457Z,67.60
2018-01-01T18:00:15.823Z,67.80
2018-01-01T18:02:56.884Z,67.80
2018-01-01T18:05:31.103Z,68.20
2018-01-01T18:11:32.396Z,67.90
2018-01-01T18:14:18.656Z,67.80
2018-01-01T18:20:00.859Z,67.40
2018-01-01T18:22:34.570Z,67.30
2018-01-01T18:25:09.469Z,67.30
2018-01-01T18:27:43.372Z,67.30
2018-01-01T18:30:17.066Z,67.60
2018-01-01T18:32:50.868Z,67.20
2018-01-01T18:35:24.650Z,67.60
2018-01-01T18:37:58.242Z,67.80
2018-01-01T18:40:33.126Z,68.00
2018-01-01T18:43:07.242Z,68.60
2018-01-01T18:45:40.896Z,69.40
2018-01-01T18:48:14.706Z,69.40
2018-01-01T18:50:49.237Z,70.70
2018-01-01T18:53:23.128Z,70.60
2018-01-01T18:55:56.788Z,69.80
2018-01-01T19:01:13.129Z,69.10
2018-01-01T19:03:49.085Z,69.60
2018-01-01T19:18:08.814Z,69.10
2018-01-01T19:20:42.669Z,68.90
2018-01-01T19:23:27.692Z,69.00
2018-01-01T19:26:02.152Z,68.80
2018-01-01T19:28:39.396Z,68.80
2018-01-01T19:34:26.800Z,69.20
2018-01-01T19:37:01.193Z,69.30
2018-01-01T19:39:38.633Z,69.30
2018-01-01T19:42:13.711Z,69.10
2018-01-01T19:50:14.035Z,68.80
2018-01-01T19:53:06.926Z,68.30
2018-01-01T19:58:48.165Z,67.90
2018-01-01T20:01:25.606Z,68.50
2018-01-01T20:06:40.437Z,68.70
2018-01-01T20:09:16.380Z,68.40
2018-01-01T20:14:59.128Z,68.10
2018-01-01T20:25:45.308Z,71.00
2018-01-01T20:28:20.352Z,72.20
2018-01-01T20:30:56.633Z,74.00
2018-01-01T20:36:27.382Z,76.90
2018-01-01T20:39:02.466Z,76.90
2018-01-01T20:49:50.860Z,80.80
2018-01-01T20:52:26.777Z,82.00
2018-01-01T20:55:00.757Z,82.10
2018-01-01T20:57:38.806Z,82.70
2018-01-01T21:00:25.750Z,82.90
2018-01-01T21:05:50.261Z,83.00
2018-01-01T21:08:24.056Z,83.60
2018-01-01T21:10:57.715Z,83.60
2018-01-01T21:13:32.996Z,84.40
2018-01-01T21:16:06.602Z,84.40
2018-01-01T21:18:44.318Z,83.50
2018-01-01T21:21:26.150Z,83.90
2018-01-01T21:24:01.747Z,84.80
2018-01-01T21:26:36.248Z,84.60
2018-01-01T21:32:08.447Z,85.20
2018-01-01T21:34:42.528Z,85.10
2018-01-01T21:37:19.259Z,85.80
2018-01-01T21:39:54.744Z,86.20
2018-01-01T21:42:29.589Z,86.20
2018-01-01T21:45:05.141Z,86.70
2018-01-01T21:47:40.335Z,87.20
2018-01-01T21:50:16.094Z,87.80
2018-01-01T21:52:54.644Z,88.10
2018-01-01T21:55:28.680Z,88.00
2018-01-01T21:58:03.532Z,88.30
2018-01-01T22:00:38.151Z,88.70
2018-01-01T22:03:11.975Z,89.80
2018-01-01T22:05:45.704Z,90.10
2018-01-01T22:08:26.317Z,90.10
2018-01-01T22:11:05.410Z,90.20
2018-01-01T22:16:31.562Z,90.40
2018-01-01T22:19:05.264Z,90.70
2018-01-01T22:21:59.808Z,90.90
2018-01-01T22:30:43.592Z,91.40
2018-01-01T22:33:17.241Z,91.60
2018-01-01T22:35:51.900Z,91.80
2018-01-01T22:38:25.573Z,91.80
2018-01-01T22:41:00.039Z,92.20
2018-01-01T22:43:34.560Z,92.20
2018-01-01T22:46:10.498Z,92.20
2018-01-01T22:48:45.136Z,92.40
2018-01-01T22:51:19.009Z,92.40
2018-01-01T22:53:53.667Z,92.40
2018-01-01T22:56:28.694Z,92.40
2018-01-01T22:59:06.726Z,92.50
2018-01-01T23:01:42.626Z,92.50
2018-01-01T23:04:17.186Z,92.70
2018-01-01T23:06:51.011Z,92.70
2018-01-01T23:09:26.341Z,92.70
2018-01-01T23:12:00.203Z,92.80
2018-01-01T23:14:35.357Z,92.80
2018-01-01T23:17:10.066Z,92.70
2018-01-01T23:19:44.580Z,92.70
2018-01-01T23:22:21.624Z,92.70
2018-01-01T23:24:56.045Z,92.70
2018-01-01T23:27:29.744Z,92.60
2018-01-01T23:30:05.520Z,92.70
2018-01-01T23:32:40.311Z,92.60
2018-01-01T23:35:15.176Z,92.70
2018-01-01T23:37:50.459Z,92.80
2018-01-01T23:40:24.055Z,92.80
2018-01-01T23:42:57.821Z,92.80
2018-01-01T23:45:33.039Z,92.70
2018-01-01T23:48:07.519Z,93.00
2018-01-01T23:50:41.445Z,93.00
2018-01-01T23:53:16.125Z,93.00
2018-01-01T23:55:51.452Z,93.00
2018-01-01T23:58:27.422Z,93.00
